sensor_id;sensor_type;location;lat;lon;timestamp;P1;durP1;ratioP1;P2;durP2;ratioP2
74219;SDS011;62580;54.416;11.120;2022-12-18T00:09:01;3.20;;;2.90;;
74219;SDS011;62580;54.416;11.120;2022-12-18T00:19:04;2.77;;;2.50;;
74219;SDS011;62580;54.416;11.120;2022-12-18T00:29:06;2.90;;;2.60;;
74219;SDS011;62580;54.416;11.120;2022-12-18T00:39:09;2.97;;;2.60;;
74219;SDS011;62580;54.416;11.120;2022-12-18T00:49:11;2.90;;;2.60;;
74219;SDS011;62580;54.416;11.120;2022-12-18T00:59:13;3.10;;;2.80;;
74219;SDS011;62580;54.416;11.120;2022-12-18T01:09:14;2.90;;;2.70;;
74219;SDS011;62580;54.416;11.120;2022-12-18T01:19:16;2.93;;;2.70;;
74219;SDS011;62580;54.416;11.120;2022-12-18T01:29:17;3.20;;;2.83;;
74219;SDS011;62580;54.416;11.120;2022-12-18T01:39:19;2.97;;;2.63;;
74219;SDS011;62580;54.416;11.120;2022-12-18T01:49:19;3.20;;;2.90;;
74219;SDS011;62580;54.416;11.120;2022-12-18T01:59:21;2.80;;;2.60;;
74219;SDS011;62580;54.416;11.120;2022-12-18T02:09:23;2.80;;;2.60;;
74219;SDS011;62580;54.416;11.120;2022-12-18T02:19:39;2.90;;;2.70;;
74219;SDS011;62580;54.416;11.120;2022-12-18T02:29:49;2.70;;;2.40;;
74219;SDS011;62580;54.416;11.120;2022-12-18T02:39:51;2.90;;;2.60;;
74219;SDS011;62580;54.416;11.120;2022-12-18T02:49:57;2.80;;;2.60;;
74219;SDS011;62580;54.416;11.120;2022-12-18T03:00:06;3.03;;;2.80;;
74219;SDS011;62580;54.416;11.120;2022-12-18T03:10:13;2.90;;;2.70;;
74219;SDS011;62580;54.416;11.120;2022-12-18T03:20:18;3.03;;;2.73;;
74219;SDS011;62580;54.416;11.120;2022-12-18T03:30:22;2.90;;;2.70;;
74219;SDS011;62580;54.416;11.120;2022-12-18T03:40:26;3.00;;;2.70;;
74219;SDS011;62580;54.416;11.120;2022-12-18T03:50:37;2.80;;;2.60;;
74219;SDS011;62580;54.416;11.120;2022-12-18T04:00:44;3.10;;;2.80;;
74219;SDS011;62580;54.416;11.120;2022-12-18T04:10:49;2.70;;;2.50;;
74219;SDS011;62580;54.416;11.120;2022-12-18T04:20:50;2.90;;;2.70;;
74219;SDS011;62580;54.416;11.120;2022-12-18T04:30:52;2.67;;;2.47;;
74219;SDS011;62580;54.416;11.120;2022-12-18T04:40:52;2.70;;;2.50;;
74219;SDS011;62580;54.416;11.120;2022-12-18T04:50:54;3.20;;;2.90;;
74219;SDS011;62580;54.416;11.120;2022-12-18T05:00:55;2.90;;;2.70;;
74219;SDS011;62580;54.416;11.120;2022-12-18T05:11:00;2.73;;;2.53;;
74219;SDS011;62580;54.416;11.120;2022-12-18T05:21:03;3.20;;;2.90;;
74219;SDS011;62580;54.416;11.120;2022-12-18T05:31:05;3.43;;;2.87;;
74219;SDS011;62580;54.416;11.120;2022-12-18T05:41:06;2.97;;;2.70;;
74219;SDS011;62580;54.416;11.120;2022-12-18T05:51:09;2.90;;;2.70;;
74219;SDS011;62580;54.416;11.120;2022-12-18T06:01:12;2.93;;;2.70;;
74219;SDS011;62580;54.416;11.120;2022-12-18T06:11:15;2.90;;;2.70;;
74219;SDS011;62580;54.416;11.120;2022-12-18T06:21:17;2.87;;;2.67;;
74219;SDS011;62580;54.416;11.120;2022-12-18T06:31:19;3.27;;;2.97;;
74219;SDS011;62580;54.416;11.120;2022-12-18T06:41:20;2.93;;;2.73;;
74219;SDS011;62580;54.416;11.120;2022-12-18T06:51:23;3.13;;;2.83;;
74219;SDS011;62580;54.416;11.120;2022-12-18T07:01:24;3.20;;;2.90;;
74219;SDS011;62580;54.416;11.120;2022-12-18T07:11:26;2.72;;;2.53;;
74219;SDS011;62580;54.416;11.120;2022-12-18T07:21:26;3.53;;;2.80;;
74219;SDS011;62580;54.416;11.120;2022-12-18T07:31:28;3.25;;;2.95;;
74219;SDS011;62580;54.416;11.120;2022-12-18T07:41:29;3.30;;;3.00;;
74219;SDS011;62580;54.416;11.120;2022-12-18T07:51:31;3.30;;;3.00;;
74219;SDS011;62580;54.416;11.120;2022-12-18T08:01:32;3.20;;;2.90;;
74219;SDS011;62580;54.416;11.120;2022-12-18T08:11:34;3.00;;;2.80;;
74219;SDS011;62580;54.416;11.120;2022-12-18T08:21:35;3.10;;;2.80;;
74219;SDS011;62580;54.416;11.120;2022-12-18T08:31:37;3.10;;;2.80;;
74219;SDS011;62580;54.416;11.120;2022-12-18T08:41:37;3.37;;;3.07;;
74219;SDS011;62580;54.416;11.120;2022-12-18T08:51:39;3.10;;;2.80;;
74219;SDS011;62580;54.416;11.120;2022-12-18T09:01:40;3.17;;;2.90;;
74219;SDS011;62580;54.416;11.120;2022-12-18T09:11:42;2.80;;;2.60;;
74219;SDS011;62580;54.416;11.120;2022-12-18T09:21:43;2.97;;;2.67;;
74219;SDS011;62580;54.416;11.120;2022-12-18T09:31:45;3.53;;;3.20;;
74219;SDS011;62580;54.416;11.120;2022-12-18T09:41:46;3.20;;;2.90;;
74219;SDS011;62580;54.416;11.120;2022-12-18T09:51:52;3.17;;;2.87;;
74219;SDS011;62580;54.416;11.120;2022-12-18T10:01:57;3.20;;;2.90;;
74219;SDS011;62580;54.416;11.120;2022-12-18T10:12:02;3.17;;;2.87;;
74219;SDS011;62580;54.416;11.120;2022-12-18T10:22:11;3.40;;;3.10;;
74219;SDS011;62580;54.416;11.120;2022-12-18T10:32:25;3.13;;;2.87;;
74219;SDS011;62580;54.416;11.120;2022-12-18T10:42:27;2.77;;;2.57;;
74219;SDS011;62580;54.416;11.120;2022-12-18T10:52:28;3.20;;;2.90;;
74219;SDS011;62580;54.416;11.120;2022-12-18T11:02:33;3.03;;;2.73;;
74219;SDS011;62580;54.416;11.120;2022-12-18T11:12:36;3.00;;;2.70;;
74219;SDS011;62580;54.416;11.120;2022-12-18T11:22:37;2.67;;;2.47;;
74219;SDS011;62580;54.416;11.120;2022-12-18T11:32:39;3.00;;;2.70;;
74219;SDS011;62580;54.416;11.120;2022-12-18T11:42:45;2.83;;;2.63;;
74219;SDS011;62580;54.416;11.120;2022-12-18T11:52:51;2.70;;;2.50;;
74219;SDS011;62580;54.416;11.120;2022-12-18T12:13:31;2.90;;;2.60;;
74219;SDS011;62580;54.416;11.120;2022-12-18T12:23:41;2.73;;;2.43;;
74219;SDS011;62580;54.416;11.120;2022-12-18T12:33:51;3.00;;;2.70;;
74219;SDS011;62580;54.416;11.120;2022-12-18T12:43:57;2.80;;;2.60;;
74219;SDS011;62580;54.416;11.120;2022-12-18T12:54:02;2.40;;;2.20;;
74219;SDS011;62580;54.416;11.120;2022-12-18T13:04:08;2.63;;;2.43;;
74219;SDS011;62580;54.416;11.120;2022-12-18T13:14:23;2.90;;;2.60;;
74219;SDS011;62580;54.416;11.120;2022-12-18T13:24:28;3.17;;;2.70;;
74219;SDS011;62580;54.416;11.120;2022-12-18T13:34:32;2.93;;;2.70;;
74219;SDS011;62580;54.416;11.120;2022-12-18T13:44:34;2.47;;;2.27;;
74219;SDS011;62580;54.416;11.120;2022-12-18T13:54:37;2.70;;;2.50;;
74219;SDS011;62580;54.416;11.120;2022-12-18T14:04:40;2.70;;;2.50;;
74219;SDS011;62580;54.416;11.120;2022-12-18T14:14:42;2.50;;;2.30;;
74219;SDS011;62580;54.416;11.120;2022-12-18T14:24:46;2.70;;;2.50;;
74219;SDS011;62580;54.416;11.120;2022-12-18T14:34:49;3.20;;;2.70;;
74219;SDS011;62580;54.416;11.120;2022-12-18T14:44:52;3.00;;;2.70;;
74219;SDS011;62580;54.416;11.120;2022-12-18T14:55:32;3.00;;;2.70;;
74219;SDS011;62580;54.416;11.120;2022-12-18T15:05:33;2.83;;;2.63;;
74219;SDS011;62580;54.416;11.120;2022-12-18T15:15:46;2.67;;;2.47;;
74219;SDS011;62580;54.416;11.120;2022-12-18T15:25:48;2.93;;;2.70;;
74219;SDS011;62580;54.416;11.120;2022-12-18T15:35:59;3.53;;;2.60;;
74219;SDS011;62580;54.416;11.120;2022-12-18T15:46:01;2.90;;;2.60;;
74219;SDS011;62580;54.416;11.120;2022-12-18T15:56:08;2.70;;;2.50;;
74219;SDS011;62580;54.416;11.120;2022-12-18T16:06:10;3.10;;;2.80;;
74219;SDS011;62580;54.416;11.120;2022-12-18T16:16:12;3.10;;;2.80;;
74219;SDS011;62580;54.416;11.120;2022-12-18T16:26:12;2.70;;;2.50;;
74219;SDS011;62580;54.416;11.120;2022-12-18T16:36:14;3.10;;;2.50;;
74219;SDS011;62580;54.416;11.120;2022-12-18T16:46:15;3.00;;;2.60;;
74219;SDS011;62580;54.416;11.120;2022-12-18T16:56:17;2.80;;;2.60;;
74219;SDS011;62580;54.416;11.120;2022-12-18T17:06:17;2.90;;;2.50;;
74219;SDS011;62580;54.416;11.120;2022-12-18T17:16:20;3.57;;;2.70;;
74219;SDS011;62580;54.416;11.120;2022-12-18T17:26:21;3.37;;;3.00;;
74219;SDS011;62580;54.416;11.120;2022-12-18T17:36:23;3.03;;;2.73;;
74219;SDS011;62580;54.416;11.120;2022-12-18T17:46:25;2.90;;;2.70;;
74219;SDS011;62580;54.416;11.120;2022-12-18T17:56:28;2.77;;;2.50;;
74219;SDS011;62580;54.416;11.120;2022-12-18T18:06:28;3.00;;;2.70;;
74219;SDS011;62580;54.416;11.120;2022-12-18T18:16:32;2.97;;;2.67;;
74219;SDS011;62580;54.416;11.120;2022-12-18T18:26:35;2.70;;;2.50;;
74219;SDS011;62580;54.416;11.120;2022-12-18T18:36:37;2.67;;;2.33;;
74219;SDS011;62580;54.416;11.120;2022-12-18T18:46:38;2.70;;;2.50;;
74219;SDS011;62580;54.416;11.120;2022-12-18T18:56:40;3.50;;;2.93;;
74219;SDS011;62580;54.416;11.120;2022-12-18T19:06:41;2.77;;;2.53;;
74219;SDS011;62580;54.416;11.120;2022-12-18T19:16:43;2.70;;;2.50;;
74219;SDS011;62580;54.416;11.120;2022-12-18T19:26:43;3.00;;;2.70;;
74219;SDS011;62580;54.416;11.120;2022-12-18T19:36:45;3.20;;;2.90;;
74219;SDS011;62580;54.416;11.120;2022-12-18T19:46:48;3.20;;;2.90;;
74219;SDS011;62580;54.416;11.120;2022-12-18T19:56:51;2.97;;;2.70;;
74219;SDS011;62580;54.416;11.120;2022-12-18T20:06:52;3.60;;;3.30;;
74219;SDS011;62580;54.416;11.120;2022-12-18T20:16:54;2.93;;;2.67;;
74219;SDS011;62580;54.416;11.120;2022-12-18T20:26:55;3.30;;;3.00;;
74219;SDS011;62580;54.416;11.120;2022-12-18T20:36:57;3.10;;;2.80;;
74219;SDS011;62580;54.416;11.120;2022-12-18T20:46:58;3.20;;;2.90;;
74219;SDS011;62580;54.416;11.120;2022-12-18T20:57:00;3.10;;;2.80;;
74219;SDS011;62580;54.416;11.120;2022-12-18T21:07:00;3.00;;;2.80;;
74219;SDS011;62580;54.416;11.120;2022-12-18T21:17:02;3.83;;;3.43;;
74219;SDS011;62580;54.416;11.120;2022-12-18T21:27:03;3.57;;;3.20;;
74219;SDS011;62580;54.416;11.120;2022-12-18T21:37:05;2.97;;;2.67;;
74219;SDS011;62580;54.416;11.120;2022-12-18T21:47:06;3.47;;;3.17;;
74219;SDS011;62580;54.416;11.120;2022-12-18T21:57:08;3.40;;;3.10;;
74219;SDS011;62580;54.416;11.120;2022-12-18T22:07:09;3.23;;;2.93;;
74219;SDS011;62580;54.416;11.120;2022-12-18T22:17:12;3.40;;;3.10;;
74219;SDS011;62580;54.416;11.120;2022-12-18T22:27:12;3.60;;;3.30;;
74219;SDS011;62580;54.416;11.120;2022-12-18T22:37:14;3.60;;;3.30;;
74219;SDS011;62580;54.416;11.120;2022-12-18T22:47:15;3.57;;;3.20;;
74219;SDS011;62580;54.416;11.120;2022-12-18T22:57:17;3.50;;;3.20;;
74219;SDS011;62580;54.416;11.120;2022-12-18T23:07:18;4.10;;;3.50;;
74219;SDS011;62580;54.416;11.120;2022-12-18T23:17:20;4.13;;;3.67;;
74219;SDS011;62580;54.416;11.120;2022-12-18T23:27:20;4.27;;;3.87;;
74219;SDS011;62580;54.416;11.120;2022-12-18T23:37:22;4.40;;;4.00;;
74219;SDS011;62580;54.416;11.120;2022-12-18T23:47:23;4.43;;;4.03;;
74219;SDS011;62580;54.416;11.120;2022-12-18T23:57:25;4.33;;;3.93;;
